Terminal Aerodrome Forecast
Issued by NWS

Home | Current Version | Previous Version | Text Only | Print | Product List | Glossary On
Versions: 1 2 3 4 5 6 7 8 9 10 11 12 13 14 15 16 17
000
FTUS44 KLZK 280520
TAFBPK
TAF
KBPK 280520Z 2806/2906 16005KT P6SM FEW025 OVC200
     FM280900 16003KT P6SM OVC020
      TEMPO 2809/2813 4SM BR OVC007
     FM281500 17006KT P6SM SCT020 BKN035
     FM282100 18008KT P6SM VCSH SCT040
     FM290100 16005KT P6SM SCT250=

USA.gov is the U.S. government's official web portal to all federal, state and local government web resources and services.